Time;durP1;ratioP1;P1;durP2;ratioP2;P2;SDS_P1;SDS_P2;PMS_P1;PMS_P2;Temp;Humidity;BMP_temperature;BMP_pressure;BME280_temperature;BME280_humidity;BME280_pressure;Samples;Min_cycle;Max_cycle;Signal;HPM_P1;HPM_P2
2022/07/08 00:02:22;;;;;;;5.90;2.30;;;;;;;20.60;49.09;98453.56;5052054;28;20266;-70
2022/07/08 00:04:47;;;;;;;4.00;2.20;;;;;;;20.57;48.63;98459.25;5069241;28;20301;-70
2022/07/08 00:07:13;;;;;;;7.63;2.20;;;;;;;20.54;48.79;98462.28;5069537;28;20546;-71
2022/07/08 00:09:39;;;;;;;5.47;1.80;;;;;;;20.53;48.52;98473.97;5070861;28;20206;-70
2022/07/08 00:12:05;;;;;;;10.10;3.47;;;;;;;20.46;48.92;98471.22;5076528;28;20189;-70
2022/07/08 00:14:30;;;;;;;8.60;2.23;;;;;;;20.44;48.77;98467.91;5069697;28;20428;-70
2022/07/08 00:16:56;;;;;;;5.63;2.17;;;;;;;20.44;49.10;98467.06;5069999;28;20748;-71
2022/07/08 00:19:21;;;;;;;5.53;2.67;;;;;;;20.44;49.14;98473.22;5036010;28;20277;-70
2022/07/08 00:21:50;;;;;;;5.77;2.23;;;;;;;20.37;48.59;98482.94;5069797;28;20181;-69
2022/07/08 00:24:16;;;;;;;3.57;1.90;;;;;;;20.33;48.74;98487.00;5072745;28;20210;-70
2022/07/08 00:26:43;;;;;;;5.03;2.03;;;;;;;20.33;48.87;98487.81;5073563;28;20451;-69
2022/07/08 00:29:09;;;;;;;6.40;2.17;;;;;;;20.30;48.76;98482.84;5074163;28;20186;-71
2022/07/08 00:31:35;;;;;;;7.07;3.23;;;;;;;20.26;48.58;98495.72;5077792;28;20473;-72
2022/07/08 00:34:00;;;;;;;7.20;2.90;;;;;;;20.22;48.42;98491.78;5073719;28;20193;-70
2022/07/08 00:36:27;;;;;;;8.80;2.37;;;;;;;20.20;48.12;98490.28;5074475;28;20195;-69
2022/07/08 00:38:53;;;;;;;7.10;2.67;;;;;;;20.17;47.97;98495.97;5075177;28;20194;-71
2022/07/08 00:41:18;;;;;;;11.57;2.60;;;;;;;20.15;48.41;98490.84;5073885;28;20511;-69
2022/07/08 00:43:45;;;;;;;7.60;2.53;;;;;;;20.13;48.59;98498.19;5073463;28;20511;-70
2022/07/08 00:46:12;;;;;;;11.73;3.20;;;;;;;20.12;47.74;98501.84;5073326;28;20199;-71
2022/07/08 00:48:38;;;;;;;7.47;2.17;;;;;;;20.08;47.59;98506.72;5074776;28;20524;-70
2022/07/08 00:51:05;;;;;;;9.20;2.40;;;;;;;20.07;47.75;98499.75;5072749;28;20512;-72
2022/07/08 00:53:32;;;;;;;4.83;2.30;;;;;;;20.05;47.96;98508.91;5075246;28;20516;-69
2022/07/08 00:55:58;;;;;;;4.00;2.00;;;;;;;20.06;47.64;98508.72;5072181;28;21131;-70
2022/07/08 00:58:25;;;;;;;5.43;2.00;;;;;;;20.02;47.33;98518.09;5066545;28;20428;-70
2022/07/08 01:00:52;;;;;;;10.87;3.10;;;;;;;19.99;46.98;98507.81;5073457;28;20489;-70
2022/07/08 01:03:18;;;;;;;7.23;3.47;;;;;;;19.96;46.87;98518.81;5071761;28;20965;-69
2022/07/08 01:05:43;;;;;;;8.10;2.97;;;;;;;19.88;46.88;98517.03;5072986;28;20472;-70
2022/07/08 01:08:09;;;;;;;6.70;2.43;;;;;;;19.88;46.92;98516.22;5072266;28;20213;-70
2022/07/08 01:10:36;;;;;;;4.47;2.77;;;;;;;19.89;46.97;98515.22;5071975;28;20186;-70
2022/07/08 01:13:02;;;;;;;9.30;3.47;;;;;;;19.88;46.58;98513.56;5072827;28;20182;-71
2022/07/08 01:15:28;;;;;;;13.30;3.27;;;;;;;19.87;46.20;98514.56;5063625;28;20489;-70
2022/07/08 01:17:53;;;;;;;5.00;2.73;;;;;;;19.82;46.76;98511.59;5071595;28;20448;-73
2022/07/08 01:20:19;;;;;;;7.63;2.50;;;;;;;19.85;46.42;98500.59;5072809;28;20266;-70
2022/07/08 01:22:44;;;;;;;5.67;3.10;;;;;;;19.79;46.46;98508.28;5072437;28;20189;-71
2022/07/08 01:25:10;;;;;;;3.33;2.40;;;;;;;19.73;45.97;98510.81;5071343;28;20230;-72
2022/07/08 01:27:36;;;;;;;6.83;4.43;;;;;;;19.74;46.00;98504.50;5072627;28;20629;-70
2022/07/08 01:30:03;;;;;;;6.73;3.00;;;;;;;19.72;46.00;98502.03;5077969;28;20188;-70
2022/07/08 01:32:33;;;;;;;10.10;3.67;;;;;;;19.67;45.78;98511.56;5063313;28;20182;-70
2022/07/08 01:34:59;;;;;;;6.50;2.87;;;;;;;19.57;45.46;98503.81;5073509;28;20437;-70
2022/07/08 01:37:24;;;;;;;4.47;2.17;;;;;;;19.56;45.63;98512.78;5072606;28;20421;-69
2022/07/08 01:39:50;;;;;;;9.03;2.50;;;;;;;19.52;45.52;98517.66;5073438;28;20205;-70
2022/07/08 01:42:15;;;;;;;8.20;2.70;;;;;;;19.47;45.51;98526.16;5072226;28;20194;-69
2022/07/08 01:44:41;;;;;;;7.80;3.20;;;;;;;19.43;45.37;98516.06;5072326;28;20198;-69
2022/07/08 01:47:06;;;;;;;6.37;2.70;;;;;;;19.39;45.57;98520.06;5071639;28;20227;-70
2022/07/08 01:49:32;;;;;;;5.67;2.90;;;;;;;19.38;45.17;98519.25;5072922;28;20265;-70
2022/07/08 01:51:58;;;;;;;9.00;2.60;;;;;;;19.31;45.49;98520.94;5072055;28;20708;-70
2022/07/08 01:54:23;;;;;;;4.07;2.40;;;;;;;19.27;45.90;98514.34;5072148;28;20669;-70
2022/07/08 01:56:49;;;;;;;11.10;2.57;;;;;;;19.23;46.16;98519.16;5071751;28;20444;-70
2022/07/08 01:59:14;;;;;;;8.10;3.30;;;;;;;19.23;46.03;98527.16;5067117;28;20281;-71
2022/07/08 02:01:40;;;;;;;10.87;2.40;;;;;;;19.21;46.19;98533.66;5070267;28;20186;-71
2022/07/08 02:04:05;;;;;;;7.97;3.03;;;;;;;19.17;46.29;98531.34;5071427;28;20214;-71
2022/07/08 02:06:31;;;;;;;11.53;3.47;;;;;;;19.16;46.24;98535.00;5071841;28;20202;-70
2022/07/08 02:08:57;;;;;;;8.67;2.83;;;;;;;19.13;46.39;98540.69;5072841;28;20190;-71
2022/07/08 02:14:06;;;;;;;6.40;2.40;;;;;;;19.02;46.69;98533.09;5068413;28;20185;-70
2022/07/08 02:16:32;;;;;;;7.40;2.67;;;;;;;19.01;46.88;98536.75;5069366;28;20456;-70
2022/07/08 02:18:58;;;;;;;7.40;2.83;;;;;;;18.93;46.95;98526.13;5070860;28;20194;-70
2022/07/08 02:21:23;;;;;;;5.17;2.47;;;;;;;18.94;47.08;98541.94;5069958;28;20505;-72
2022/07/08 02:23:49;;;;;;;7.53;3.10;;;;;;;18.96;47.20;98541.75;5071465;28;20368;-70
2022/07/08 02:26:14;;;;;;;9.13;2.80;;;;;;;18.94;47.32;98539.28;5071094;28;20210;-70
2022/07/08 02:28:40;;;;;;;9.90;3.00;;;;;;;18.88;47.42;98542.59;5071393;28;20644;-71
2022/07/08 02:31:05;;;;;;;4.80;2.50;;;;;;;18.79;47.71;98538.31;5075253;28;20545;-70
2022/07/08 02:33:31;;;;;;;4.10;2.40;;;;;;;18.76;47.60;98546.63;5071682;28;20198;-71
2022/07/08 02:35:56;;;;;;;9.10;3.07;;;;;;;18.77;47.36;98546.47;5073360;28;20202;-70
2022/07/08 02:38:22;;;;;;;7.10;3.40;;;;;;;18.68;47.58;98542.16;5071141;28;20182;-70
2022/07/08 02:40:47;;;;;;;5.90;2.60;;;;;;;18.65;47.84;98543.34;5070375;28;20197;-70
2022/07/08 02:43:13;;;;;;;8.87;2.70;;;;;;;18.57;47.96;98546.84;5071178;28;20178;-71
2022/07/08 02:45:39;;;;;;;4.50;2.27;;;;;;;18.60;48.06;98555.47;5070524;28;20833;-69
2022/07/08 02:48:05;;;;;;;9.37;3.03;;;;;;;18.53;48.33;98553.50;5070993;28;20189;-70
2022/07/08 02:50:31;;;;;;;10.77;2.80;;;;;;;18.55;48.14;98556.81;5071049;28;20209;-72
2022/07/08 02:52:56;;;;;;;6.63;2.50;;;;;;;18.42;48.23;98552.06;5068291;28;20437;-70
2022/07/08 02:55:22;;;;;;;6.63;2.93;;;;;;;18.39;48.55;98559.53;5070769;28;20567;-70
2022/07/08 02:57:47;;;;;;;6.40;2.67;;;;;;;18.39;48.61;98564.84;5059282;28;20240;-70
2022/07/08 03:00:13;;;;;;;9.03;2.63;;;;;;;18.34;48.66;98572.47;5068540;28;20178;-70
2022/07/08 03:02:38;;;;;;;7.17;2.40;;;;;;;18.26;48.84;98563.53;5071114;28;20214;-70
2022/07/08 03:05:04;;;;;;;6.40;2.50;;;;;;;18.35;48.72;98560.84;5070309;28;20216;-71
2022/07/08 03:07:29;;;;;;;10.60;2.73;;;;;;;18.34;48.61;98564.50;5070658;28;20182;-70
2022/07/08 03:09:55;;;;;;;6.40;2.70;;;;;;;18.31;48.72;98570.16;5071472;28;20191;-71
2022/07/08 03:12:20;;;;;;;11.53;3.27;;;;;;;18.26;48.93;98575.97;5070627;28;20193;-72
2022/07/08 03:14:46;;;;;;;6.30;2.50;;;;;;;18.24;48.70;98577.94;5066235;28;20649;-70
2022/07/08 03:17:11;;;;;;;8.13;2.93;;;;;;;18.21;48.99;98584.44;5069275;28;20270;-72
2022/07/08 03:19:37;;;;;;;14.47;2.50;;;;;;;18.13;49.22;98586.25;5069407;28;20552;-70
2022/07/08 03:22:04;;;;;;;9.20;2.70;;;;;;;18.12;49.31;98590.75;5043706;28;20178;-72
2022/07/08 03:24:30;;;;;;;12.57;5.87;;;;;;;18.06;49.59;98597.56;5041450;28;20250;-71
2022/07/08 03:26:56;;;;;;;6.77;2.50;;;;;;;18.09;49.51;98601.69;5069140;28;20971;-73
2022/07/08 03:29:21;;;;;;;7.57;3.00;;;;;;;18.10;49.36;98598.03;5070159;28;20677;-71
2022/07/08 03:31:47;;;;;;;8.27;2.87;;;;;;;18.09;49.54;98607.00;5061459;28;20448;-73
2022/07/08 03:34:12;;;;;;;9.60;3.00;;;;;;;18.16;49.34;98596.53;5067676;28;20194;-71
2022/07/08 03:36:38;;;;;;;5.93;2.60;;;;;;;18.15;49.14;98598.34;5069204;28;20202;-72
2022/07/08 03:39:03;;;;;;;9.00;2.50;;;;;;;18.15;49.29;98606.31;5057724;28;20186;-70
2022/07/08 03:41:29;;;;;;;9.60;3.00;;;;;;;18.16;49.30;98613.28;5071823;28;20214;-70
2022/07/08 03:43:54;;;;;;;11.27;3.20;;;;;;;18.12;48.78;98606.66;5070262;28;20569;-72
2022/07/08 03:46:20;;;;;;;11.80;3.33;;;;;;;18.07;49.34;98607.16;5069341;28;20289;-72
2022/07/08 03:48:46;;;;;;;8.67;2.63;;;;;;;17.99;49.38;98628.38;5070204;28;20197;-70
2022/07/08 03:51:13;;;;;;;6.07;2.80;;;;;;;17.99;49.67;98624.91;5069768;28;20924;-72
2022/07/08 03:53:39;;;;;;;6.03;2.77;;;;;;;17.99;49.54;98638.16;5070406;28;20177;-71
2022/07/08 03:56:05;;;;;;;4.87;2.70;;;;;;;18.01;49.58;98641.50;5070082;28;20445;-70
2022/07/08 03:58:31;;;;;;;6.90;3.00;;;;;;;18.02;49.44;98635.19;5070984;28;20178;-70
2022/07/08 04:00:57;;;;;;;6.53;2.87;;;;;;;18.01;49.51;98636.19;5068949;28;20436;-70
2022/07/08 04:03:22;;;;;;;9.07;3.30;;;;;;;17.88;49.72;98632.16;5073681;28;20513;-71
2022/07/08 04:05:48;;;;;;;5.97;2.43;;;;;;;17.89;49.69;98639.13;5073735;28;20206;-72
2022/07/08 04:08:13;;;;;;;6.60;2.67;;;;;;;17.91;49.83;98631.81;5068575;28;20621;-70
2022/07/08 04:10:39;;;;;;;7.00;2.83;;;;;;;17.86;49.96;98642.09;5071888;28;20195;-71
2022/07/08 04:13:05;;;;;;;5.57;2.47;;;;;;;17.86;49.88;98638.59;5060024;28;20183;-71
2022/07/08 04:15:30;;;;;;;5.57;2.63;;;;;;;17.87;50.16;98642.91;5065456;28;20210;-72
2022/07/08 04:17:56;;;;;;;7.60;2.80;;;;;;;17.81;50.24;98655.00;5060411;28;20609;-70
2022/07/08 04:20:21;;;;;;;7.70;3.47;;;;;;;17.84;50.53;98659.16;5056422;28;20187;-71
2022/07/08 04:22:47;;;;;;;6.87;2.50;;;;;;;17.84;50.62;98646.72;5070220;28;20689;-70
2022/07/08 04:25:13;;;;;;;6.43;2.33;;;;;;;17.92;50.54;98649.38;5058554;28;20213;-70
2022/07/08 04:27:38;;;;;;;9.23;3.10;;;;;;;17.98;50.32;98647.94;5073363;28;20179;-71
2022/07/08 04:30:04;;;;;;;8.97;3.27;;;;;;;17.97;50.20;98648.91;5065940;28;20178;-72
2022/07/08 04:32:30;;;;;;;5.20;2.50;;;;;;;18.00;50.41;98645.94;5062975;28;20751;-71
2022/07/08 04:34:59;;;;;;;8.63;2.90;;;;;;;17.98;50.12;98652.41;5063684;28;20449;-71
2022/07/08 04:37:26;;;;;;;13.13;3.20;;;;;;;17.94;49.91;98652.72;5060137;28;20268;-71
2022/07/08 04:39:52;;;;;;;8.03;2.60;;;;;;;17.94;50.11;98658.00;5062840;28;20436;-69
2022/07/08 04:42:17;;;;;;;10.90;2.50;;;;;;;17.98;50.24;98641.81;5064592;28;20573;-69
2022/07/08 04:44:43;;;;;;;6.47;2.60;;;;;;;17.98;50.26;98642.63;5067491;28;20919;-70
2022/07/08 04:47:08;;;;;;;6.93;2.57;;;;;;;17.96;50.50;98649.88;5058579;28;20187;-71
2022/07/08 04:49:34;;;;;;;11.20;2.97;;;;;;;17.99;50.39;98644.28;5063494;28;20206;-70
2022/07/08 04:51:59;;;;;;;10.43;3.37;;;;;;;17.99;50.46;98648.78;5059879;28;20268;-69
2022/07/08 04:54:25;;;;;;;7.97;2.93;;;;;;;18.03;50.44;98637.66;5061812;28;20300;-70
2022/07/08 04:56:50;;;;;;;8.23;2.90;;;;;;;18.07;50.47;98646.13;5051431;28;20359;-71
2022/07/08 04:59:16;;;;;;;7.87;2.90;;;;;;;18.08;50.60;98650.44;5064274;28;20265;-70
2022/07/08 05:01:41;;;;;;;6.20;2.80;;;;;;;18.07;50.61;98657.56;5067400;28;20186;-70
2022/07/08 05:04:07;;;;;;;6.03;2.60;;;;;;;18.09;50.33;98658.22;5057452;28;20245;-70
2022/07/08 05:06:32;;;;;;;8.10;3.00;;;;;;;18.16;50.01;98649.59;5072594;28;20226;-70
2022/07/08 05:08:58;;;;;;;8.00;3.00;;;;;;;18.21;50.10;98648.09;5067385;28;20190;-74
2022/07/08 05:11:23;;;;;;;7.77;2.80;;;;;;;18.29;50.01;98644.63;5072985;28;20196;-70
2022/07/08 05:13:49;;;;;;;9.50;2.63;;;;;;;18.35;49.80;98653.75;5078419;28;20186;-70
2022/07/08 05:16:14;;;;;;;5.57;2.47;;;;;;;18.41;49.51;98653.06;5080205;28;20287;-70
2022/07/08 05:18:41;;;;;;;8.63;3.13;;;;;;;18.48;49.42;98643.44;5072335;28;20260;-73
2022/07/08 05:21:06;;;;;;;7.17;2.70;;;;;;;18.58;49.76;98651.25;5070436;28;20926;-72
2022/07/08 05:23:32;;;;;;;6.20;2.33;;;;;;;18.62;48.86;98654.38;5072492;28;20428;-69
2022/07/08 05:25:57;;;;;;;7.47;2.60;;;;;;;18.67;48.50;98652.03;5072319;28;20576;-69
2022/07/08 05:28:23;;;;;;;9.53;2.63;;;;;;;18.76;48.55;98656.34;5071800;28;20239;-70
2022/07/08 05:30:49;;;;;;;6.03;2.73;;;;;;;18.81;48.18;98651.34;5068706;28;20183;-69
2022/07/08 05:33:14;;;;;;;6.60;2.20;;;;;;;18.87;48.20;98655.97;5060103;28;20574;-68
2022/07/08 05:35:40;;;;;;;5.83;2.60;;;;;;;18.97;47.62;98654.97;5064455;28;20445;-69
2022/07/08 05:38:05;;;;;;;6.37;2.50;;;;;;;19.05;47.33;98654.13;5047403;28;20214;-72
2022/07/08 05:40:31;;;;;;;5.33;2.10;;;;;;;19.09;47.11;98661.59;5056188;28;20221;-68
2022/07/08 05:42:56;;;;;;;4.97;2.13;;;;;;;19.17;46.60;98664.19;5067417;28;20206;-70
2022/07/08 05:45:22;;;;;;;8.90;2.10;;;;;;;19.24;46.69;98668.84;5062141;28;20689;-71
2022/07/08 05:47:47;;;;;;;5.60;2.20;;;;;;;19.38;46.77;98670.78;5062473;28;20201;-69
2022/07/08 05:50:13;;;;;;;9.03;2.40;;;;;;;19.47;46.24;98668.88;5062908;28;20193;-69
2022/07/08 05:52:39;;;;;;;5.63;2.50;;;;;;;19.55;45.63;98676.00;5062414;28;20394;-68
2022/07/08 05:55:05;;;;;;;7.20;2.03;;;;;;;19.59;45.70;98682.63;5063832;28;20433;-69
2022/07/08 05:57:30;;;;;;;10.77;2.13;;;;;;;19.56;45.02;98682.97;5067843;28;20184;-69
2022/07/08 05:59:56;;;;;;;9.00;2.33;;;;;;;19.64;44.84;98680.28;5062694;28;20430;-68
2022/07/08 06:02:21;;;;;;;4.20;1.70;;;;;;;19.73;45.34;98681.88;5068414;28;20200;-68
2022/07/08 06:04:47;;;;;;;8.37;2.97;;;;;;;19.84;45.07;98680.66;5062456;28;20213;-71
2022/07/08 06:07:12;;;;;;;6.53;1.90;;;;;;;19.94;44.34;98683.09;5065727;28;20556;-73
2022/07/08 06:09:38;;;;;;;10.03;2.00;;;;;;;19.93;43.61;98684.09;5065509;28;20228;-70
2022/07/08 06:12:04;;;;;;;8.70;2.10;;;;;;;19.99;44.08;98688.75;5063885;28;20209;-70
2022/07/08 06:14:30;;;;;;;6.80;1.80;;;;;;;20.09;44.33;98691.19;5064843;28;20189;-69
2022/07/08 06:16:55;;;;;;;7.37;2.17;;;;;;;20.16;44.38;98693.94;5060428;28;20449;-70
2022/07/08 06:19:22;;;;;;;8.70;2.20;;;;;;;20.09;43.94;98694.66;5060861;28;20175;-69
2022/07/08 06:21:48;;;;;;;6.27;2.37;;;;;;;20.19;43.97;98693.56;5061871;28;20742;-71
2022/07/08 06:24:13;;;;;;;8.10;2.67;;;;;;;20.30;43.99;98695.00;5066129;28;20460;-69
2022/07/08 06:26:39;;;;;;;9.70;2.73;;;;;;;20.26;43.91;98689.22;5060039;28;20283;-69
2022/07/08 06:29:04;;;;;;;6.63;2.30;;;;;;;20.40;43.56;98691.09;5063660;28;20190;-69
2022/07/08 06:31:30;;;;;;;6.20;2.17;;;;;;;20.48;43.60;98698.16;5066228;28;20185;-68
2022/07/08 06:33:56;;;;;;;6.93;2.57;;;;;;;20.36;42.70;98700.44;5061704;28;20722;-69
2022/07/08 06:36:23;;;;;;;10.03;2.80;;;;;;;20.33;43.09;98699.97;5058410;28;20249;-68
2022/07/08 06:38:50;;;;;;;6.07;2.70;;;;;;;20.21;43.07;98702.22;5057984;28;20619;-70
2022/07/08 06:41:15;;;;;;;15.13;2.77;;;;;;;20.13;43.30;98704.94;5059052;28;20908;-71
2022/07/08 06:43:40;;;;;;;11.60;3.10;;;;;;;20.12;43.54;98704.09;5065191;28;20472;-69
2022/07/08 06:46:06;;;;;;;13.83;2.57;;;;;;;20.23;43.69;98700.22;5062122;28;20586;-69
2022/07/08 06:48:31;;;;;;;7.07;2.83;;;;;;;20.40;43.21;98696.41;5060591;28;20175;-71
2022/07/08 06:50:57;;;;;;;5.03;2.00;;;;;;;20.51;43.29;98705.78;5054880;28;20273;-69
2022/07/08 06:53:22;;;;;;;6.03;1.90;;;;;;;20.52;41.67;98702.13;5059923;28;20201;-69
2022/07/08 06:55:48;;;;;;;8.40;1.67;;;;;;;20.54;41.85;98710.78;5060842;28;20268;-72
2022/07/08 06:58:13;;;;;;;16.30;1.70;;;;;;;20.65;42.61;98711.34;5059843;28;20178;-72
2022/07/08 07:00:39;;;;;;;3.93;1.70;;;;;;;20.66;41.89;98721.84;5059976;28;20230;-71
2022/07/08 07:03:04;;;;;;;3.70;1.83;;;;;;;20.67;42.28;98720.78;5062553;28;20182;-71
2022/07/08 07:05:30;;;;;;;6.10;1.60;;;;;;;20.67;41.09;98717.31;5064203;28;20297;-69
2022/07/08 07:07:56;;;;;;;7.27;1.90;;;;;;;20.62;41.36;98715.19;5070868;28;20186;-69
2022/07/08 07:10:21;;;;;;;6.03;1.70;;;;;;;20.63;41.54;98714.19;5070680;28;20474;-69
2022/07/08 07:12:47;;;;;;;10.87;2.10;;;;;;;20.61;40.11;98712.69;5077509;28;20228;-70
2022/07/08 07:15:13;;;;;;;4.60;1.37;;;;;;;20.61;40.61;98720.69;5070609;28;20196;-69
2022/07/08 07:17:42;;;;;;;7.30;1.90;;;;;;;20.64;41.64;98718.50;5070643;28;20186;-69
2022/07/08 07:20:08;;;;;;;7.13;1.60;;;;;;;20.79;40.17;98712.41;5062168;28;20722;-70
2022/07/08 07:22:34;;;;;;;4.03;1.47;;;;;;;21.00;40.53;98711.69;5069463;28;20449;-69
2022/07/08 07:25:00;;;;;;;4.90;1.70;;;;;;;21.31;39.95;98713.34;5070680;28;20496;-70
2022/07/08 07:27:26;;;;;;;7.93;1.97;;;;;;;21.45;38.68;98719.66;5069846;28;20183;-69
2022/07/08 07:29:51;;;;;;;4.13;1.60;;;;;;;21.59;38.43;98721.53;5073225;28;20178;-69
2022/07/08 07:32:17;;;;;;;7.97;1.60;;;;;;;21.67;37.51;98725.94;5071367;28;20189;-68
2022/07/08 07:34:42;;;;;;;3.47;1.70;;;;;;;21.66;38.24;98724.28;5070198;28;20668;-71
2022/07/08 07:37:07;;;;;;;8.37;2.00;;;;;;;21.54;37.19;98729.25;5071691;28;20780;-69
2022/07/08 07:39:33;;;;;;;6.10;1.90;;;;;;;21.49;36.93;98727.09;5070493;28;20206;-69
2022/07/08 07:41:59;;;;;;;6.10;1.37;;;;;;;21.40;37.81;98730.09;5076639;28;20185;-72
2022/07/08 07:44:25;;;;;;;6.00;2.07;;;;;;;21.35;38.35;98735.13;5070717;28;20774;-72
2022/07/08 07:46:50;;;;;;;6.00;1.47;;;;;;;21.32;38.80;98731.81;5071394;28;20452;-69
2022/07/08 07:49:16;;;;;;;7.83;1.50;;;;;;;21.38;38.28;98726.78;5070228;28;20179;-69
2022/07/08 07:51:41;;;;;;;4.53;1.80;;;;;;;21.61;38.31;98724.84;5070863;28;20178;-70
2022/07/08 07:54:06;;;;;;;4.80;1.70;;;;;;;21.87;36.91;98728.81;5070737;28;20182;-68
2022/07/08 07:56:33;;;;;;;5.93;1.60;;;;;;;21.91;36.39;98735.44;5070061;28;20249;-70
2022/07/08 07:58:58;;;;;;;5.50;1.60;;;;;;;21.96;36.62;98731.38;5070460;28;20179;-69
2022/07/08 08:01:24;;;;;;;3.33;1.37;;;;;;;22.03;36.39;98725.09;5069842;28;20435;-68
2022/07/08 08:03:50;;;;;;;5.00;1.63;;;;;;;22.36;36.49;98731.78;5070095;28;20266;-69
2022/07/08 08:06:15;;;;;;;7.33;1.70;;;;;;;22.53;36.12;98732.34;5059908;28;20226;-70
2022/07/08 08:08:41;;;;;;;5.13;1.47;;;;;;;22.53;35.87;98729.69;5051699;28;20245;-68
2022/07/08 08:11:06;;;;;;;5.40;2.23;;;;;;;22.69;36.51;98731.25;5053913;28;20229;-69
2022/07/08 08:13:32;;;;;;;4.00;1.50;;;;;;;22.93;36.18;98737.22;5061305;28;20174;-69
2022/07/08 08:15:58;;;;;;;5.90;1.67;;;;;;;22.94;35.15;98739.66;5066941;28;20289;-69
2022/07/08 08:18:24;;;;;;;4.93;1.60;;;;;;;22.75;35.04;98738.50;5063523;28;20194;-70
2022/07/08 08:20:49;;;;;;;7.00;1.60;;;;;;;22.72;35.63;98735.41;5062191;28;20427;-70
2022/07/08 08:23:15;;;;;;;3.97;1.50;;;;;;;22.61;35.35;98734.06;5063364;28;20214;-70
2022/07/08 08:25:43;;;;;;;5.57;1.60;;;;;;;22.53;35.43;98735.88;5067657;28;20221;-68
2022/07/08 08:28:09;;;;;;;4.03;1.30;;;;;;;22.37;35.20;98733.44;5057062;28;20274;-69
2022/07/08 08:30:34;;;;;;;4.23;1.20;;;;;;;22.28;36.33;98745.25;5068184;28;20512;-69
2022/07/08 08:33:00;;;;;;;4.00;1.67;;;;;;;22.21;36.37;98743.34;5060500;28;20187;-71
2022/07/08 08:35:25;;;;;;;8.73;1.63;;;;;;;22.18;36.21;98740.22;5068174;28;20237;-68
2022/07/08 08:37:51;;;;;;;3.93;1.60;;;;;;;22.19;36.09;98737.34;5060907;28;20174;-69
2022/07/08 08:40:19;;;;;;;3.77;1.73;;;;;;;22.11;35.90;98734.81;5055661;28;20266;-69
2022/07/08 08:42:45;;;;;;;3.63;1.47;;;;;;;22.12;35.82;98731.16;5067147;28;20653;-70
2022/07/08 08:45:11;;;;;;;2.93;1.50;;;;;;;22.34;35.86;98731.97;5066604;28;20499;-71
2022/07/08 08:47:37;;;;;;;2.70;1.20;;;;;;;22.62;34.46;98727.72;5070367;28;20182;-70
2022/07/08 08:52:50;;;;;;;3.90;1.50;;;;;;;23.15;34.23;98725.41;5066867;28;20428;-69
2022/07/08 08:55:33;;;;;;;5.10;1.20;;;;;;;23.54;33.93;98727.69;5061279;28;20465;-70
2022/07/08 08:58:03;;;;;;;2.80;1.27;;;;;;;23.83;34.07;98723.88;5064251;28;20436;-69
2022/07/08 09:00:30;;;;;;;4.97;1.43;;;;;;;23.89;34.20;98724.94;5063354;28;20445;-70
2022/07/08 09:02:56;;;;;;;4.13;1.73;;;;;;;23.69;32.46;98719.50;5065177;28;20511;-73
2022/07/08 09:05:23;;;;;;;3.50;1.30;;;;;;;23.83;33.18;98723.03;5066322;28;20468;-70
2022/07/08 09:07:49;;;;;;;6.20;1.50;;;;;;;23.82;32.61;98718.75;5065360;28;20495;-70
2022/07/08 09:10:16;;;;;;;6.30;1.40;;;;;;;23.82;33.45;98716.06;5065951;28;20448;-69
2022/07/08 09:12:59;;;;;;;8.13;1.70;;;;;;;23.70;33.45;98716.63;5067629;28;20512;-70
2022/07/08 09:15:33;;;;;;;3.07;1.60;;;;;;;23.71;32.89;98723.63;5069738;28;20437;-73
2022/07/08 09:18:00;;;;;;;7.67;1.87;;;;;;;23.78;33.23;98710.28;5062843;28;20532;-70
2022/07/08 09:20:25;;;;;;;4.30;1.53;;;;;;;23.98;33.05;98713.03;5060465;28;20442;-70
2022/07/08 09:22:50;;;;;;;4.50;1.40;;;;;;;24.12;31.98;98703.19;5062279;28;20429;-70
2022/07/08 09:25:16;;;;;;;4.27;1.40;;;;;;;24.34;32.10;98711.84;5058639;28;20218;-71
2022/07/08 09:27:41;;;;;;;3.30;1.30;;;;;;;24.53;31.53;98709.38;5070396;28;20174;-67
2022/07/08 09:30:08;;;;;;;6.03;1.30;;;;;;;24.56;30.70;98703.63;5071959;28;20207;-69
2022/07/08 09:32:33;;;;;;;4.43;1.40;;;;;;;24.74;31.16;98711.06;5070762;28;20202;-71
2022/07/08 09:35:00;;;;;;;5.47;1.80;;;;;;;24.90;31.05;98720.53;5065795;28;20524;-70
2022/07/08 09:37:26;;;;;;;2.40;1.20;;;;;;;24.94;30.46;98711.03;5065442;28;20847;-71
2022/07/08 09:39:51;;;;;;;4.30;1.40;;;;;;;25.04;31.19;98705.22;5067035;28;20528;-71
2022/07/08 09:42:17;;;;;;;3.73;1.43;;;;;;;25.10;29.94;98703.56;5076500;28;20186;-68
2022/07/08 09:44:50;;;;;;;11.27;1.70;;;;;;;25.21;30.30;98710.94;5070721;28;20198;-68
2022/07/08 09:47:16;;;;;;;3.50;1.50;;;;;;;25.22;29.72;98712.59;5059368;28;20525;-72
2022/07/08 09:49:43;;;;;;;6.40;1.63;;;;;;;25.30;29.52;98709.72;5055643;28;20524;-70
2022/07/08 09:52:10;;;;;;;7.30;1.80;;;;;;;25.32;30.29;98716.72;5061554;28;20731;-70
2022/07/08 09:54:36;;;;;;;7.47;1.40;;;;;;;25.43;30.32;98713.41;5046988;28;20869;-69
2022/07/08 09:57:04;;;;;;;5.97;2.10;;;;;;;25.42;29.92;98711.75;5061901;28;20453;-69
2022/07/08 09:59:31;;;;;;;4.43;1.43;;;;;;;25.22;29.71;98715.28;5056670;28;20799;-71
2022/07/08 10:01:57;;;;;;;4.23;1.30;;;;;;;25.18;29.97;98716.75;5064004;28;20925;-71
2022/07/08 10:04:24;;;;;;;4.07;1.37;;;;;;;25.39;31.01;98712.94;5058441;28;20476;-70
2022/07/08 10:06:50;;;;;;;4.23;1.60;;;;;;;25.65;30.20;98716.59;5071775;28;20518;-73
2022/07/08 10:09:16;;;;;;;3.83;1.50;;;;;;;25.88;30.12;98709.91;5071567;28;20420;-70
2022/07/08 10:11:43;;;;;;;6.07;1.40;;;;;;;25.95;28.68;98716.03;5067320;28;20428;-70
2022/07/08 10:14:08;;;;;;;3.47;1.27;;;;;;;26.08;28.26;98709.78;5065351;28;20175;-69
2022/07/08 10:16:34;;;;;;;2.40;1.10;;;;;;;26.30;28.91;98709.44;5067193;28;20493;-70
2022/07/08 10:19:02;;;;;;;5.43;1.57;;;;;;;26.52;28.49;98716.09;5071897;28;20266;-70
2022/07/08 10:21:28;;;;;;;6.53;1.67;;;;;;;26.65;28.55;98715.13;5058929;28;20450;-70
2022/07/08 10:23:54;;;;;;;5.60;1.40;;;;;;;26.71;29.01;98710.78;5062593;28;20801;-69
2022/07/08 10:26:23;;;;;;;5.90;1.87;;;;;;;26.83;28.59;98713.56;5060072;28;20449;-69
2022/07/08 10:29:05;;;;;;;3.60;1.40;;;;;;;26.98;28.46;98713.19;5068008;28;20269;-70
2022/07/08 10:31:47;;;;;;;11.43;6.90;;;;;;;26.99;28.71;98717.53;5071737;28;21155;-70
2022/07/08 10:34:16;;;;;;;4.60;2.77;;;;;;;26.80;28.18;98712.16;5058574;28;20440;-72
2022/07/08 10:36:50;;;;;;;7.23;4.17;;;;;;;26.41;28.49;98719.47;5060995;28;20452;-70
2022/07/08 10:39:51;;;;;;;7.23;2.53;;;;;;;26.20;29.74;98717.97;5063902;28;20432;-71
2022/07/08 10:42:20;;;;;;;6.70;2.43;;;;;;;26.23;29.51;98720.25;5099518;28;20434;-70
2022/07/08 10:44:45;;;;;;;3.20;1.57;;;;;;;26.41;29.02;98715.97;5068672;28;20866;-75
2022/07/08 10:47:32;;;;;;;3.87;2.23;;;;;;;26.56;28.07;98708.41;5057645;28;20438;-72
2022/07/08 10:50:04;;;;;;;8.23;2.60;;;;;;;26.75;27.58;98703.88;5065675;28;20264;-70
2022/07/08 10:52:38;;;;;;;6.93;1.80;;;;;;;26.89;27.09;98714.53;5056055;28;20444;-72
2022/07/08 10:55:14;;;;;;;2.70;1.10;;;;;;;27.01;27.05;98707.38;5057213;28;20523;-69
2022/07/08 10:57:54;;;;;;;5.73;4.03;;;;;;;27.07;27.81;98714.59;5067656;28;20842;-70
2022/07/08 11:00:19;;;;;;;3.17;2.00;;;;;;;27.19;28.11;98716.53;5058334;28;20512;-68
2022/07/08 11:02:46;;;;;;;2.60;1.60;;;;;;;27.26;27.96;98712.72;5064979;28;20974;-69
2022/07/08 11:05:34;;;;;;;5.70;1.20;;;;;;;27.22;27.33;98713.38;5054024;28;20222;-69
2022/07/08 11:08:18;;;;;;;12.07;1.30;;;;;;;27.28;26.88;98709.78;5052585;28;20810;-68
2022/07/08 11:10:44;;;;;;;6.23;1.37;;;;;;;27.28;27.45;98705.22;5068645;28;21011;-68
2022/07/08 11:13:10;;;;;;;8.80;1.20;;;;;;;27.33;27.55;98709.09;5068195;28;20457;-69
2022/07/08 11:15:36;;;;;;;3.80;1.40;;;;;;;27.37;27.39;98704.94;5069688;28;20225;-69
2022/07/08 11:18:02;;;;;;;4.50;1.30;;;;;;;27.44;27.76;98700.28;5062004;28;20916;-69
2022/07/08 11:20:30;;;;;;;5.13;1.60;;;;;;;27.52;27.33;98707.25;5062287;28;20435;-70
2022/07/08 11:22:55;;;;;;;6.20;1.47;;;;;;;27.43;26.83;98706.72;5065393;28;20190;-68
2022/07/08 11:25:22;;;;;;;5.10;1.40;;;;;;;27.59;27.18;98702.63;5062564;28;20516;-69
2022/07/08 11:27:47;;;;;;;2.70;1.10;;;;;;;27.70;26.39;98709.94;5067177;28;20181;-68
2022/07/08 11:30:15;;;;;;;2.17;1.00;;;;;;;27.72;27.01;98707.81;5070288;28;20430;-69
2022/07/08 11:32:41;;;;;;;6.93;2.00;;;;;;;27.82;26.34;98707.28;5069674;28;20186;-69
2022/07/08 11:35:08;;;;;;;1.87;1.10;;;;;;;27.92;26.90;98706.72;5061461;28;20448;-69